createdAt,value
2022-11-12T00:01:06.756Z,6.70
2022-11-12T00:03:33.783Z,6.60
2022-11-12T00:06:00.729Z,6.60
2022-11-12T00:08:28.066Z,6.70
2022-11-12T00:10:55.344Z,6.60
2022-11-12T00:13:22.372Z,6.70
2022-11-12T00:15:49.324Z,6.70
2022-11-12T00:18:16.270Z,6.60
2022-11-12T00:20:44.196Z,6.60
2022-11-12T00:23:11.258Z,6.60
2022-11-12T00:25:38.338Z,6.60
2022-11-12T00:28:07.771Z,6.60
2022-11-12T00:30:37.116Z,6.60
2022-11-12T00:33:05.098Z,6.60
2022-11-12T00:35:33.363Z,6.50
2022-11-12T00:38:01.682Z,6.50
2022-11-12T00:40:29.440Z,6.50
2022-11-12T00:42:56.456Z,6.50
2022-11-12T00:45:24.501Z,6.50
2022-11-12T00:47:55.984Z,6.50
2022-11-12T00:50:23.382Z,6.50
2022-11-12T00:52:54.867Z,6.50
2022-11-12T00:55:22.061Z,6.50
2022-11-12T00:57:49.187Z,6.50
2022-11-12T01:00:18.953Z,6.50
2022-11-12T01:02:50.721Z,6.50
2022-11-12T01:05:20.079Z,6.50
2022-11-12T01:07:53.121Z,6.50
2022-11-12T01:10:22.077Z,6.50
2022-11-12T01:12:49.100Z,6.50
2022-11-12T01:15:16.116Z,6.50
2022-11-12T01:17:43.106Z,6.50
2022-11-12T01:20:10.268Z,6.50
2022-11-12T01:22:37.207Z,6.50
2022-11-12T01:25:04.510Z,6.40
2022-11-12T01:27:31.496Z,6.40
2022-11-12T01:29:59.579Z,6.40
2022-11-12T01:32:28.009Z,6.40
2022-11-12T01:34:55.110Z,6.40
2022-11-12T01:37:22.054Z,6.40
2022-11-12T01:39:48.980Z,6.40
2022-11-12T01:42:15.941Z,6.40
2022-11-12T01:44:46.313Z,6.40
2022-11-12T01:47:33.303Z,6.40
2022-11-12T01:50:10.966Z,6.40
2022-11-12T01:53:09.317Z,6.40
2022-11-12T01:55:38.124Z,6.30
2022-11-12T01:58:10.474Z,6.40
2022-11-12T02:00:38.061Z,6.40
2022-11-12T02:03:11.698Z,6.40
2022-11-12T02:05:39.770Z,6.40
2022-11-12T02:08:11.426Z,6.40
2022-11-12T02:10:40.151Z,6.40
2022-11-12T02:13:27.604Z,6.40
2022-11-12T02:15:55.608Z,6.40
2022-11-12T02:18:22.593Z,6.40
2022-11-12T02:20:58.621Z,6.40
2022-11-12T02:23:25.630Z,6.40
2022-11-12T02:25:52.632Z,6.30
2022-11-12T02:28:19.674Z,6.40
2022-11-12T02:30:49.475Z,6.40
2022-11-12T02:33:16.451Z,6.40
2022-11-12T02:35:43.457Z,6.40
2022-11-12T02:38:10.876Z,6.40
2022-11-12T02:40:38.002Z,6.40
2022-11-12T02:43:04.955Z,6.40
2022-11-12T02:45:32.318Z,6.40
2022-11-12T02:47:59.290Z,6.40
2022-11-12T02:50:26.349Z,6.40
2022-11-12T02:52:53.332Z,6.40
2022-11-12T02:55:20.302Z,6.40
2022-11-12T02:57:47.285Z,6.40
2022-11-12T03:00:14.913Z,6.30
2022-11-12T03:02:59.037Z,6.30
2022-11-12T03:05:32.121Z,6.30
2022-11-12T03:08:01.178Z,6.30
2022-11-12T03:10:29.074Z,6.30
2022-11-12T03:13:00.665Z,6.30
2022-11-12T03:15:28.867Z,6.20
2022-11-12T03:17:58.061Z,6.20
2022-11-12T03:20:26.288Z,6.30
2022-11-12T03:23:05.039Z,6.20
2022-11-12T03:25:32.269Z,6.20
2022-11-12T03:28:03.318Z,6.20
2022-11-12T03:30:33.165Z,6.30
2022-11-12T03:33:00.193Z,6.30
2022-11-12T03:35:27.692Z,6.30
2022-11-12T03:37:54.833Z,6.30
2022-11-12T03:40:22.542Z,6.30
2022-11-12T03:42:51.882Z,6.30
2022-11-12T03:45:20.982Z,6.30
2022-11-12T03:47:50.144Z,6.30
2022-11-12T03:50:19.511Z,6.30
2022-11-12T03:52:48.243Z,6.30
2022-11-12T03:55:17.451Z,6.30
2022-11-12T03:57:44.649Z,6.30
2022-11-12T04:00:12.952Z,6.30
2022-11-12T04:02:39.986Z,6.20
2022-11-12T04:05:25.819Z,6.20
2022-11-12T04:08:26.060Z,6.20
2022-11-12T04:10:54.835Z,6.20
2022-11-12T04:13:27.695Z,6.10
2022-11-12T04:16:20.353Z,6.10
2022-11-12T04:19:08.320Z,6.10
2022-11-12T04:21:51.932Z,6.10
2022-11-12T04:24:40.485Z,6.10
2022-11-12T04:27:09.409Z,6.00
2022-11-12T04:29:55.371Z,6.00
2022-11-12T04:32:22.843Z,6.00
2022-11-12T04:34:49.887Z,5.90
2022-11-12T04:37:22.389Z,5.90
2022-11-12T04:39:52.063Z,5.90
2022-11-12T04:42:38.166Z,5.80
2022-11-12T04:45:14.319Z,5.80
2022-11-12T04:47:45.463Z,5.80
2022-11-12T04:50:17.896Z,5.70
2022-11-12T04:52:44.905Z,5.60
2022-11-12T04:55:12.410Z,5.60
2022-11-12T04:57:39.445Z,5.50
2022-11-12T05:00:07.053Z,5.50
2022-11-12T05:02:34.024Z,5.60
2022-11-12T05:05:01.060Z,5.60
2022-11-12T05:07:28.067Z,5.60
2022-11-12T05:09:55.058Z,5.70
2022-11-12T05:12:22.009Z,5.70
2022-11-12T05:14:48.998Z,5.70
2022-11-12T05:17:15.972Z,5.80
2022-11-12T05:19:42.965Z,5.80
2022-11-12T05:22:33.207Z,5.80
2022-11-12T05:25:00.116Z,5.80
2022-11-12T05:27:27.126Z,5.80
2022-11-12T05:29:54.136Z,5.80
2022-11-12T05:32:21.598Z,5.80
2022-11-12T05:34:48.731Z,5.80
2022-11-12T05:37:17.462Z,5.80
2022-11-12T05:39:44.528Z,5.90
2022-11-12T05:42:13.315Z,5.80
2022-11-12T05:44:41.587Z,5.80
2022-11-12T05:47:08.741Z,5.90
2022-11-12T05:49:35.683Z,5.80
2022-11-12T05:52:02.735Z,5.80
2022-11-12T05:54:30.275Z,5.80
2022-11-12T05:56:57.254Z,5.80
2022-11-12T05:59:24.736Z,5.80
2022-11-12T06:01:51.759Z,5.80
2022-11-12T06:04:18.875Z,5.80
2022-11-12T06:06:45.992Z,5.70
2022-11-12T06:09:13.238Z,5.80
2022-11-12T06:11:40.277Z,5.70
2022-11-12T06:14:07.696Z,5.70
2022-11-12T06:16:34.802Z,5.70
2022-11-12T06:19:01.881Z,5.70
2022-11-12T06:21:28.965Z,5.60
2022-11-12T06:24:00.536Z,5.60
2022-11-12T06:26:29.701Z,5.60
2022-11-12T06:28:57.215Z,5.70
2022-11-12T06:31:24.185Z,5.70
2022-11-12T06:33:51.695Z,5.70
2022-11-12T06:36:20.557Z,5.80
2022-11-12T06:38:47.994Z,5.80
2022-11-12T06:41:15.477Z,5.80
2022-11-12T06:43:42.894Z,5.80
2022-11-12T06:46:17.007Z,5.80
2022-11-12T06:48:43.957Z,5.80
2022-11-12T06:51:19.577Z,5.80
2022-11-12T06:53:47.041Z,5.80
2022-11-12T06:56:14.696Z,5.90
2022-11-12T06:58:42.139Z,5.90
2022-11-12T07:01:15.254Z,5.90
2022-11-12T07:03:44.336Z,6.00
2022-11-12T07:06:18.781Z,6.00
2022-11-12T07:08:51.505Z,6.10
2022-11-12T07:11:20.152Z,6.20
2022-11-12T07:13:47.878Z,6.20
2022-11-12T07:16:18.873Z,6.20
2022-11-12T07:18:47.502Z,6.20
2022-11-12T07:21:18.074Z,6.30
2022-11-12T07:23:45.938Z,6.30
2022-11-12T07:26:21.875Z,6.30
2022-11-12T07:28:50.910Z,6.30
2022-11-12T07:31:19.802Z,6.30
2022-11-12T07:33:49.063Z,6.30
2022-11-12T07:36:18.652Z,6.30
2022-11-12T07:38:46.450Z,6.30
2022-11-12T07:41:16.532Z,6.30
2022-11-12T07:43:46.332Z,6.30
2022-11-12T07:46:25.633Z,6.30
2022-11-12T07:48:53.300Z,6.40
2022-11-12T07:51:25.550Z,6.40
2022-11-12T07:53:58.956Z,6.40
2022-11-12T07:56:27.821Z,6.40
2022-11-12T07:58:54.854Z,6.40
2022-11-12T08:01:33.671Z,6.40
2022-11-12T08:04:02.333Z,6.50
2022-11-12T08:06:30.789Z,6.50
2022-11-12T08:08:59.982Z,6.60
2022-11-12T08:11:27.161Z,6.60
2022-11-12T08:13:54.645Z,6.70
2022-11-12T08:16:22.083Z,6.70
2022-11-12T08:18:50.365Z,6.70
2022-11-12T08:21:19.064Z,6.80
2022-11-12T08:23:46.956Z,6.80
2022-11-12T08:26:16.617Z,6.90
2022-11-12T08:28:43.739Z,7.00
2022-11-12T08:31:15.409Z,7.10
2022-11-12T08:33:42.710Z,7.20
2022-11-12T08:36:12.270Z,7.20
2022-11-12T08:38:40.000Z,7.30
2022-11-12T08:41:09.960Z,7.50
2022-11-12T08:43:38.982Z,7.60
2022-11-12T08:46:06.385Z,7.60
2022-11-12T08:48:34.632Z,7.70
2022-11-12T08:51:03.579Z,7.80
2022-11-12T08:53:30.703Z,7.80
2022-11-12T08:55:58.764Z,7.80
2022-11-12T08:58:26.691Z,7.80
2022-11-12T09:00:54.344Z,7.90
2022-11-12T09:03:25.222Z,8.00
2022-11-12T09:05:53.601Z,8.00
2022-11-12T09:08:23.137Z,8.00
2022-11-12T09:10:51.070Z,8.10
2022-11-12T09:13:18.547Z,8.10
2022-11-12T09:15:47.037Z,8.30
2022-11-12T09:18:16.969Z,8.30
2022-11-12T09:20:44.852Z,8.40
2022-11-12T09:23:14.816Z,8.40
2022-11-12T09:25:42.829Z,8.40
2022-11-12T09:28:11.023Z,8.40
2022-11-12T09:30:42.022Z,8.40
2022-11-12T09:33:09.003Z,8.40
2022-11-12T09:35:36.024Z,8.40
2022-11-12T09:38:03.016Z,8.40
2022-11-12T09:40:50.984Z,8.50
2022-11-12T09:43:33.790Z,8.50
2022-11-12T09:49:12.994Z,8.60
2022-11-12T09:52:03.666Z,8.70
2022-11-12T09:54:36.527Z,8.70
2022-11-12T09:57:03.891Z,8.80
2022-11-12T09:59:34.763Z,9.00
2022-11-12T10:02:39.986Z,9.10
2022-11-12T10:05:24.168Z,9.20
2022-11-12T10:08:24.872Z,9.30
2022-11-12T10:11:15.453Z,9.30
2022-11-12T10:14:04.820Z,9.50
2022-11-12T10:16:43.704Z,9.60
2022-11-12T10:19:19.205Z,9.80
2022-11-12T10:22:07.124Z,9.90
2022-11-12T10:24:37.222Z,10.00
2022-11-12T10:27:27.560Z,10.20
2022-11-12T10:29:57.695Z,10.30
2022-11-12T10:32:24.685Z,10.40
2022-11-12T10:34:51.642Z,10.40
2022-11-12T10:37:29.007Z,10.50
2022-11-12T10:39:56.064Z,10.60
2022-11-12T10:42:24.202Z,10.70
2022-11-12T10:44:52.007Z,10.80
2022-11-12T10:47:24.927Z,10.90
2022-11-12T10:50:03.635Z,11.00
2022-11-12T10:52:31.897Z,11.10
2022-11-12T10:55:21.774Z,11.20
2022-11-12T10:58:06.695Z,11.30
2022-11-12T11:00:34.355Z,11.40
2022-11-12T11:03:06.924Z,11.50
2022-11-12T11:05:37.145Z,11.60
2022-11-12T11:08:05.830Z,11.70
2022-11-12T11:10:36.322Z,11.70
2022-11-12T11:13:26.242Z,11.90
2022-11-12T11:16:03.287Z,12.00
2022-11-12T11:18:34.483Z,12.20
2022-11-12T11:21:15.360Z,12.30
2022-11-12T11:23:54.327Z,12.30
2022-11-12T11:26:57.175Z,12.30
2022-11-12T11:29:36.031Z,12.30
2022-11-12T11:32:15.566Z,12.40
2022-11-12T11:34:54.654Z,12.40
2022-11-12T11:37:30.787Z,12.50
2022-11-12T11:40:20.824Z,12.60
2022-11-12T11:43:22.161Z,12.60
2022-11-12T11:45:51.814Z,12.70
2022-11-12T11:48:42.447Z,12.70
2022-11-12T11:51:48.022Z,12.80
2022-11-12T11:54:42.236Z,12.90
2022-11-12T11:57:17.440Z,13.00
2022-11-12T11:59:47.486Z,13.00
2022-11-12T12:03:06.134Z,13.00
2022-11-12T12:05:42.283Z,13.10
2022-11-12T12:08:19.020Z,13.10
2022-11-12T12:11:20.019Z,13.20
2022-11-12T12:14:02.099Z,13.30
2022-11-12T12:16:54.100Z,13.30
2022-11-12T12:19:39.457Z,13.30
2022-11-12T12:22:12.798Z,13.20
2022-11-12T12:24:55.734Z,13.30
2022-11-12T12:27:27.807Z,13.30
2022-11-12T12:30:04.359Z,13.40
2022-11-12T12:32:51.491Z,13.40
2022-11-12T12:35:44.685Z,13.40
2022-11-12T12:38:29.113Z,13.50
2022-11-12T12:41:05.670Z,13.50
2022-11-12T12:44:02.769Z,13.50
2022-11-12T12:46:37.365Z,13.60
2022-11-12T12:49:06.294Z,13.60
2022-11-12T12:51:34.586Z,13.60
2022-11-12T12:54:01.685Z,13.60
2022-11-12T12:56:31.688Z,13.60
2022-11-12T12:59:04.055Z,13.60
2022-11-12T13:01:34.469Z,13.60
2022-11-12T13:04:09.003Z,13.60
2022-11-12T13:06:38.371Z,13.60
2022-11-12T13:09:21.688Z,13.60
2022-11-12T13:12:06.581Z,13.60
2022-11-12T13:14:36.441Z,13.60
2022-11-12T13:17:09.337Z,13.60
2022-11-12T13:19:38.265Z,13.60
2022-11-12T13:22:17.529Z,13.60
2022-11-12T13:25:02.882Z,13.50
2022-11-12T13:27:45.829Z,13.50
2022-11-12T13:30:18.168Z,13.50
2022-11-12T13:32:48.263Z,13.50
2022-11-12T13:35:22.541Z,13.40
2022-11-12T13:38:15.996Z,13.40
2022-11-12T13:40:50.568Z,13.40
2022-11-12T13:43:35.955Z,13.40
2022-11-12T13:46:10.833Z,13.40
2022-11-12T13:48:53.077Z,13.40
2022-11-12T13:51:32.046Z,13.40
2022-11-12T13:53:59.207Z,13.40
2022-11-12T13:56:35.185Z,13.30
2022-11-12T13:59:31.641Z,13.30
2022-11-12T14:02:18.547Z,13.30
2022-11-12T14:04:46.186Z,13.30
2022-11-12T14:07:35.391Z,13.30
2022-11-12T14:10:49.867Z,13.30
2022-11-12T14:13:26.116Z,13.20
2022-11-12T14:16:14.764Z,13.20
2022-11-12T14:18:53.121Z,13.20
2022-11-12T14:21:20.705Z,13.10
2022-11-12T14:23:50.007Z,13.00
2022-11-12T14:26:36.844Z,13.00
2022-11-12T14:29:05.318Z,13.00
2022-11-12T14:31:32.885Z,12.90
2022-11-12T14:34:23.004Z,12.90
2022-11-12T14:36:50.781Z,12.80
2022-11-12T14:39:17.853Z,12.70
2022-11-12T14:41:49.398Z,12.70
2022-11-12T14:44:37.064Z,12.60
2022-11-12T14:47:04.553Z,12.50
2022-11-12T14:49:48.196Z,12.40
2022-11-12T14:52:22.960Z,12.30
2022-11-12T14:54:58.235Z,12.30
2022-11-12T14:57:30.972Z,12.20
2022-11-12T14:59:58.530Z,12.10
2022-11-12T15:02:42.761Z,12.00
2022-11-12T15:05:20.909Z,11.90
2022-11-12T15:07:56.902Z,11.80
2022-11-12T15:10:34.631Z,11.60
2022-11-12T15:13:27.139Z,11.50
2022-11-12T15:16:01.688Z,11.40
2022-11-12T15:18:30.786Z,11.30
2022-11-12T15:21:16.202Z,11.20
2022-11-12T15:24:12.260Z,11.10
2022-11-12T15:26:42.234Z,10.90
2022-11-12T15:29:15.808Z,10.80
2022-11-12T15:32:03.532Z,10.70
2022-11-12T15:34:34.627Z,10.60
2022-11-12T15:37:05.743Z,10.50
2022-11-12T15:39:41.800Z,10.40
2022-11-12T15:42:17.516Z,10.30
2022-11-12T15:44:45.728Z,10.20
2022-11-12T15:47:21.920Z,10.20
2022-11-12T15:49:54.334Z,10.10
2022-11-12T15:52:22.466Z,10.00
2022-11-12T15:54:49.710Z,9.90
2022-11-12T15:57:27.102Z,9.80
2022-11-12T16:00:08.800Z,9.80
2022-11-12T16:02:35.961Z,9.70
2022-11-12T16:05:02.956Z,9.60
2022-11-12T16:07:29.978Z,9.60
2022-11-12T16:09:56.975Z,9.50
2022-11-12T16:12:24.865Z,9.40
2022-11-12T16:14:51.946Z,9.40
2022-11-12T16:17:19.667Z,9.30
2022-11-12T16:19:46.751Z,9.30
2022-11-12T16:22:14.110Z,9.20
2022-11-12T16:24:42.183Z,9.10
2022-11-12T16:27:14.596Z,9.10
2022-11-12T16:29:42.219Z,9.00
2022-11-12T16:32:15.675Z,9.00
2022-11-12T16:34:42.663Z,8.90
2022-11-12T16:37:13.039Z,8.80
2022-11-12T16:39:40.507Z,8.80
2022-11-12T16:42:11.067Z,8.70
2022-11-12T16:44:38.165Z,8.70
2022-11-12T16:47:06.058Z,8.70
2022-11-12T16:49:38.302Z,8.60
2022-11-12T16:52:05.822Z,8.50
2022-11-12T16:54:32.788Z,8.40
2022-11-12T16:57:00.035Z,8.40
2022-11-12T16:59:27.266Z,8.30
2022-11-12T17:01:54.347Z,8.30
2022-11-12T17:04:24.658Z,8.20
2022-11-12T17:06:51.902Z,8.20
2022-11-12T17:09:19.341Z,8.20
2022-11-12T17:11:46.814Z,8.10
2022-11-12T17:14:13.882Z,8.10
2022-11-12T17:16:41.113Z,8.00
2022-11-12T17:19:10.709Z,8.00
2022-11-12T17:21:38.076Z,7.90
2022-11-12T17:24:06.183Z,7.90
2022-11-12T17:26:33.626Z,7.80
2022-11-12T17:29:06.450Z,7.80
2022-11-12T17:31:36.929Z,7.80
2022-11-12T17:34:07.085Z,7.70
2022-11-12T17:36:36.991Z,7.70
2022-11-12T17:39:13.239Z,7.60
2022-11-12T17:41:41.787Z,7.60
2022-11-12T17:44:13.310Z,7.50
2022-11-12T17:46:40.594Z,7.50
2022-11-12T17:49:10.362Z,7.50
2022-11-12T17:51:37.908Z,7.40
2022-11-12T17:54:05.809Z,7.40
2022-11-12T17:56:36.907Z,7.30
2022-11-12T17:59:05.120Z,7.30
2022-11-12T18:01:34.058Z,7.20
2022-11-12T18:04:02.356Z,7.20
2022-11-12T18:06:34.630Z,7.20
2022-11-12T18:09:15.047Z,7.10
2022-11-12T18:11:46.491Z,7.10
2022-11-12T18:14:15.010Z,7.00
2022-11-12T18:16:43.364Z,7.00
2022-11-12T18:19:11.859Z,7.00
2022-11-12T18:21:40.877Z,7.00
2022-11-12T18:24:13.830Z,6.90
2022-11-12T18:26:41.625Z,6.90
2022-11-12T18:29:09.242Z,6.90
2022-11-12T18:31:37.259Z,6.90
2022-11-12T18:34:04.810Z,6.90
2022-11-12T18:36:32.957Z,6.90
2022-11-12T18:39:03.870Z,6.80
2022-11-12T18:41:32.851Z,6.80
2022-11-12T18:44:01.355Z,6.80
2022-11-12T18:46:30.500Z,6.70
2022-11-12T18:48:58.253Z,6.70
2022-11-12T18:51:26.482Z,6.60
2022-11-12T18:53:54.245Z,6.60
2022-11-12T18:56:22.528Z,6.60
2022-11-12T18:58:51.103Z,6.50
2022-11-12T19:01:21.341Z,6.50
2022-11-12T19:03:52.579Z,6.50
2022-11-12T19:06:20.040Z,6.40
2022-11-12T19:08:47.879Z,6.40
2022-11-12T19:11:17.172Z,6.30
2022-11-12T19:13:44.375Z,6.30
2022-11-12T19:16:17.582Z,6.20
2022-11-12T19:18:46.327Z,6.20
2022-11-12T19:21:24.871Z,6.10
2022-11-12T19:23:55.445Z,6.10
2022-11-12T19:26:24.519Z,6.10
2022-11-12T19:28:52.233Z,6.00
2022-11-12T19:31:22.817Z,6.00
2022-11-12T19:33:51.343Z,5.90
2022-11-12T19:36:22.303Z,5.90
2022-11-12T19:38:55.324Z,5.90
2022-11-12T19:41:22.776Z,5.90
2022-11-12T19:43:50.790Z,5.90
2022-11-12T19:46:18.557Z,5.90
2022-11-12T19:48:46.860Z,5.90
2022-11-12T19:51:14.789Z,5.90
2022-11-12T19:53:44.848Z,5.90
2022-11-12T19:56:18.075Z,5.80
2022-11-12T19:58:46.635Z,5.80
2022-11-12T20:01:18.049Z,5.80
2022-11-12T20:03:45.406Z,5.80
2022-11-12T20:06:19.730Z,5.80
2022-11-12T20:08:47.440Z,5.80
2022-11-12T20:11:16.754Z,5.70
2022-11-12T20:13:45.153Z,5.70
2022-11-12T20:16:17.545Z,5.70
2022-11-12T20:18:51.024Z,5.70
2022-11-12T20:21:18.998Z,5.70
2022-11-12T20:23:48.429Z,5.60
2022-11-12T20:26:16.483Z,5.60
2022-11-12T20:28:44.909Z,5.60
2022-11-12T20:31:15.150Z,5.60
2022-11-12T20:33:43.205Z,5.60
2022-11-12T20:36:13.306Z,5.50
2022-11-12T20:38:43.575Z,5.50
2022-11-12T20:41:19.414Z,5.50
2022-11-12T20:43:47.364Z,5.50
2022-11-12T20:46:15.172Z,5.50
2022-11-12T20:48:43.723Z,5.50
2022-11-12T20:51:24.173Z,5.40
2022-11-12T20:53:59.355Z,5.40
2022-11-12T20:56:29.355Z,5.40
2022-11-12T20:58:56.969Z,5.40
2022-11-12T21:01:25.373Z,5.30
2022-11-12T21:03:53.100Z,5.30
2022-11-12T21:06:23.506Z,5.30
2022-11-12T21:08:51.664Z,5.30
2022-11-12T21:11:21.761Z,5.20
2022-11-12T21:13:50.004Z,5.20
2022-11-12T21:16:17.981Z,5.20
2022-11-12T21:18:45.301Z,5.20
2022-11-12T21:21:15.279Z,5.10
2022-11-12T21:23:44.401Z,5.10
2022-11-12T21:26:17.308Z,5.10
2022-11-12T21:28:45.976Z,5.10
2022-11-12T21:31:29.244Z,5.10
2022-11-12T21:34:00.396Z,5.10
2022-11-12T21:36:28.523Z,5.10
2022-11-12T21:38:55.707Z,5.00
2022-11-12T21:41:27.676Z,5.00
2022-11-12T21:43:55.164Z,5.00
2022-11-12T21:46:25.001Z,5.00
2022-11-12T21:48:55.392Z,5.00
2022-11-12T21:51:27.671Z,5.00
2022-11-12T21:54:02.640Z,4.90
2022-11-12T21:56:30.140Z,4.90
2022-11-12T21:59:01.755Z,4.90
2022-11-12T22:01:31.346Z,4.90
2022-11-12T22:03:59.934Z,4.90
2022-11-12T22:06:29.516Z,4.80
2022-11-12T22:08:58.480Z,4.80
2022-11-12T22:11:26.827Z,4.90
2022-11-12T22:13:53.993Z,4.90
2022-11-12T22:16:26.308Z,4.80
2022-11-12T22:18:55.165Z,4.80
2022-11-12T22:21:27.386Z,4.80
2022-11-12T22:23:55.987Z,4.80
2022-11-12T22:26:25.721Z,4.80
2022-11-12T22:28:54.395Z,4.80
2022-11-12T22:31:24.491Z,4.80
2022-11-12T22:33:51.486Z,4.80
2022-11-12T22:36:21.201Z,4.70
2022-11-12T22:38:50.523Z,4.70
2022-11-12T22:41:24.828Z,4.70
2022-11-12T22:43:54.308Z,4.70
2022-11-12T22:46:24.096Z,4.70
2022-11-12T22:48:51.344Z,4.70
2022-11-12T22:51:21.446Z,4.70
2022-11-12T22:53:53.102Z,4.70
2022-11-12T22:56:20.283Z,4.60
2022-11-12T22:58:48.337Z,4.60
2022-11-12T23:01:25.906Z,4.60
2022-11-12T23:03:56.326Z,4.50
2022-11-12T23:06:24.257Z,4.50
2022-11-12T23:08:53.073Z,4.50
2022-11-12T23:11:21.337Z,4.50
2022-11-12T23:13:49.143Z,4.50
2022-11-12T23:16:23.994Z,4.50
2022-11-12T23:18:52.844Z,4.50
2022-11-12T23:21:24.478Z,4.60
2022-11-12T23:23:51.585Z,4.50
2022-11-12T23:26:21.159Z,4.50
2022-11-12T23:28:49.146Z,4.60
2022-11-12T23:31:22.854Z,4.60
2022-11-12T23:33:51.742Z,4.70
2022-11-12T23:36:20.168Z,4.70
2022-11-12T23:38:48.053Z,4.70
2022-11-12T23:41:22.871Z,4.70
2022-11-12T23:43:50.563Z,4.80
2022-11-12T23:46:17.656Z,4.90
2022-11-12T23:48:45.236Z,4.90
2022-11-12T23:51:18.012Z,5.00
2022-11-12T23:53:45.728Z,5.00
2022-11-12T23:56:15.874Z,5.10
2022-11-12T23:58:43.438Z,5.10
